createdAt,value
2023-06-11T00:00:32.448Z,6.43
2023-06-11T00:02:59.031Z,5.57
2023-06-11T00:05:25.534Z,6.65
2023-06-11T00:07:51.963Z,8.18
2023-06-11T00:10:18.466Z,6.30
2023-06-11T00:12:44.906Z,5.70
2023-06-11T00:15:11.548Z,6.40
2023-06-11T00:17:38.219Z,6.50
2023-06-11T00:20:04.710Z,6.45
2023-06-11T00:22:31.185Z,6.07
2023-06-11T00:24:57.673Z,5.32
2023-06-11T00:27:24.144Z,6.20
2023-06-11T00:29:50.637Z,6.00
2023-06-11T00:32:17.106Z,6.20
2023-06-11T00:34:43.598Z,7.75
2023-06-11T00:37:10.090Z,6.90
2023-06-11T00:39:36.635Z,5.68
2023-06-11T00:42:03.144Z,6.00
2023-06-11T00:44:29.580Z,6.63
2023-06-11T00:46:56.036Z,5.75
2023-06-11T00:49:22.524Z,6.15
2023-06-11T00:51:48.992Z,5.80
2023-06-11T00:54:15.418Z,7.72
2023-06-11T00:56:41.882Z,9.98
2023-06-11T00:59:08.341Z,7.63
2023-06-11T01:01:34.881Z,6.55
2023-06-11T01:04:01.533Z,6.15
2023-06-11T01:06:28.133Z,5.55
2023-06-11T01:08:54.627Z,6.43
2023-06-11T01:11:21.123Z,6.38
2023-06-11T01:13:47.582Z,6.30
2023-06-11T01:16:14.041Z,6.15
2023-06-11T01:18:40.569Z,6.32
2023-06-11T01:21:07.052Z,6.68
2023-06-11T01:23:33.561Z,7.25
2023-06-11T01:25:59.983Z,7.47
2023-06-11T01:28:26.410Z,6.85
2023-06-11T01:30:53.056Z,5.68
2023-06-11T01:33:19.595Z,6.97
2023-06-11T01:35:46.056Z,6.22
2023-06-11T01:38:12.478Z,5.97
2023-06-11T01:40:38.943Z,6.15
2023-06-11T01:43:05.432Z,6.13
2023-06-11T01:45:31.894Z,6.45
2023-06-11T01:47:58.322Z,6.20
2023-06-11T01:50:24.921Z,6.45
2023-06-11T01:52:51.398Z,6.55
2023-06-11T01:55:17.833Z,6.32
2023-06-11T01:57:44.340Z,5.60
2023-06-11T02:00:10.821Z,5.40
2023-06-11T02:02:37.339Z,6.20
2023-06-11T02:05:03.827Z,5.75
2023-06-11T02:07:30.252Z,5.30
2023-06-11T02:09:56.675Z,5.85
2023-06-11T02:12:23.108Z,6.03
2023-06-11T02:14:49.549Z,5.63
2023-06-11T02:17:15.961Z,5.63
2023-06-11T02:19:42.432Z,5.65
2023-06-11T02:22:08.911Z,6.07
2023-06-11T02:24:35.402Z,5.75
2023-06-11T02:27:01.887Z,5.85
2023-06-11T02:29:28.379Z,6.10
2023-06-11T02:31:54.901Z,6.38
2023-06-11T02:34:21.350Z,6.03
2023-06-11T02:36:47.882Z,5.95
2023-06-11T02:39:14.369Z,6.90
2023-06-11T02:41:40.904Z,6.65
2023-06-11T02:44:07.361Z,7.25
2023-06-11T02:46:33.885Z,6.00
2023-06-11T02:49:00.417Z,6.63
2023-06-11T02:51:26.886Z,5.95
2023-06-11T02:53:53.320Z,6.13
2023-06-11T02:56:19.751Z,6.57
2023-06-11T02:58:46.208Z,6.30
2023-06-11T03:01:12.701Z,6.55
2023-06-11T03:03:39.252Z,6.10
2023-06-11T03:06:05.747Z,6.57
2023-06-11T03:08:32.221Z,6.65
2023-06-11T03:10:58.691Z,6.57
2023-06-11T03:13:25.183Z,6.93
2023-06-11T03:15:51.688Z,6.45
2023-06-11T03:18:18.116Z,6.72
2023-06-11T03:20:44.553Z,7.13
2023-06-11T03:23:10.988Z,6.65
2023-06-11T03:25:37.452Z,6.65
2023-06-11T03:28:03.875Z,6.88
2023-06-11T03:30:30.357Z,6.35
2023-06-11T03:32:56.817Z,6.55
2023-06-11T03:35:23.273Z,6.60
2023-06-11T03:37:49.717Z,6.20
2023-06-11T03:40:16.189Z,6.63
2023-06-11T03:42:42.691Z,6.65
2023-06-11T03:45:09.267Z,6.40
2023-06-11T03:47:35.994Z,6.50
2023-06-11T03:50:02.542Z,6.40
2023-06-11T03:52:29.031Z,6.57
2023-06-11T03:54:55.480Z,6.60
2023-06-11T03:57:21.895Z,7.05
2023-06-11T03:59:48.323Z,6.30
2023-06-11T04:02:14.809Z,6.85
2023-06-11T04:04:41.497Z,6.20
2023-06-11T04:07:08.000Z,7.10
2023-06-11T04:09:34.425Z,6.53
2023-06-11T04:12:00.893Z,6.38
2023-06-11T04:14:27.376Z,6.20
2023-06-11T04:16:53.881Z,6.80
2023-06-11T04:19:20.426Z,5.93
2023-06-11T04:21:46.929Z,7.07
2023-06-11T04:24:13.433Z,6.70
2023-06-11T04:26:39.933Z,6.20
2023-06-11T04:29:06.455Z,6.13
2023-06-11T04:31:32.952Z,6.25
2023-06-11T04:33:59.392Z,5.97
2023-06-11T04:36:26.042Z,6.03
2023-06-11T04:38:52.589Z,6.55
2023-06-11T04:41:19.086Z,7.22
2023-06-11T04:43:45.564Z,7.28
2023-06-11T04:46:12.032Z,6.43
2023-06-11T04:48:38.536Z,7.75
2023-06-11T04:51:05.039Z,6.47
2023-06-11T04:53:31.484Z,6.72
2023-06-11T04:55:57.937Z,5.88
2023-06-11T04:58:24.373Z,6.35
2023-06-11T05:00:50.809Z,6.43
2023-06-11T05:03:17.355Z,7.95
2023-06-11T05:05:43.838Z,7.32
2023-06-11T05:08:10.362Z,6.80
2023-06-11T05:10:36.835Z,7.82
2023-06-11T05:13:03.467Z,6.40
2023-06-11T05:15:29.909Z,6.43
2023-06-11T05:17:59.304Z,6.70
2023-06-11T05:20:25.819Z,6.18
2023-06-11T05:22:52.231Z,6.47
2023-06-11T05:25:18.701Z,5.97
2023-06-11T05:27:45.235Z,4.85
2023-06-11T05:30:11.718Z,5.30
2023-06-11T05:32:38.203Z,5.18
2023-06-11T05:35:04.639Z,5.10
2023-06-11T05:37:31.066Z,5.65
2023-06-11T05:39:57.491Z,5.43
2023-06-11T05:42:23.956Z,5.65
2023-06-11T05:44:50.353Z,6.97
2023-06-11T05:47:16.851Z,5.90
2023-06-11T05:49:43.389Z,6.28
2023-06-11T05:52:09.861Z,6.75
2023-06-11T05:54:36.334Z,7.88
2023-06-11T05:57:02.816Z,6.43
2023-06-11T05:59:29.256Z,6.20
2023-06-11T06:01:55.666Z,6.60
2023-06-11T06:04:22.255Z,6.28
2023-06-11T06:06:48.759Z,6.70
2023-06-11T06:09:15.241Z,6.45
2023-06-11T06:11:41.656Z,6.70
2023-06-11T06:14:08.168Z,6.40
2023-06-11T06:16:34.658Z,6.97
2023-06-11T06:19:01.166Z,6.20
2023-06-11T06:21:27.626Z,7.38
2023-06-11T06:23:54.173Z,6.25
2023-06-11T06:26:20.712Z,7.30
2023-06-11T06:28:47.176Z,6.20
2023-06-11T06:31:13.730Z,6.05
2023-06-11T06:33:40.295Z,6.55
2023-06-11T06:36:08.786Z,5.95
2023-06-11T06:38:35.256Z,6.30
2023-06-11T06:41:01.683Z,7.63
2023-06-11T06:43:28.199Z,6.25
2023-06-11T06:45:54.661Z,6.38
2023-06-11T06:48:21.223Z,6.13
2023-06-11T06:50:47.776Z,6.25
2023-06-11T06:53:14.204Z,6.18
2023-06-11T06:55:40.662Z,5.95
2023-06-11T06:58:07.102Z,5.93
2023-06-11T07:00:33.593Z,5.85
2023-06-11T07:03:00.092Z,6.07
2023-06-11T07:05:26.609Z,6.00
2023-06-11T07:07:53.051Z,6.57
2023-06-11T07:10:19.507Z,7.00
2023-06-11T07:12:45.972Z,6.53
2023-06-11T07:15:12.418Z,6.68
2023-06-11T07:17:38.868Z,7.55
2023-06-11T07:20:05.465Z,7.43
2023-06-11T07:22:31.951Z,7.18
2023-06-11T07:24:58.437Z,6.18
2023-06-11T07:27:25.103Z,5.80
2023-06-11T07:29:51.648Z,6.53
2023-06-11T07:32:18.080Z,6.50
2023-06-11T07:34:44.488Z,6.32
2023-06-11T07:37:10.961Z,7.10
2023-06-11T07:39:37.428Z,6.63
2023-06-11T07:42:03.858Z,6.70
2023-06-11T07:44:30.317Z,6.13
2023-06-11T07:46:56.805Z,5.60
2023-06-11T07:49:23.256Z,5.78
2023-06-11T07:51:49.698Z,6.20
2023-06-11T07:54:16.160Z,5.80
2023-06-11T07:56:42.629Z,5.60
2023-06-11T07:59:09.128Z,5.60
2023-06-11T08:01:35.599Z,5.93
2023-06-11T08:04:02.043Z,5.68
2023-06-11T08:06:28.529Z,6.63
2023-06-11T08:08:54.994Z,5.53
2023-06-11T08:11:21.544Z,5.55
2023-06-11T08:13:48.077Z,5.57
2023-06-11T08:16:14.608Z,5.32
2023-06-11T08:18:41.097Z,5.03
2023-06-11T08:21:07.573Z,5.70
2023-06-11T08:23:34.046Z,4.85
2023-06-11T08:26:00.458Z,5.43
2023-06-11T08:28:26.891Z,4.88
2023-06-11T08:30:53.330Z,5.57
2023-06-11T08:33:19.983Z,4.53
2023-06-11T08:35:46.532Z,4.82
2023-06-11T08:38:12.996Z,6.05
2023-06-11T08:40:39.434Z,5.00
2023-06-11T08:43:05.884Z,4.97
2023-06-11T08:45:32.294Z,4.50
2023-06-11T08:47:58.819Z,4.90
2023-06-11T08:50:25.369Z,5.30
2023-06-11T08:52:51.806Z,5.80
2023-06-11T08:55:18.279Z,4.97
2023-06-11T08:57:44.760Z,5.15
2023-06-11T09:00:11.764Z,4.57
2023-06-11T09:02:38.478Z,4.72
2023-06-11T09:05:04.945Z,4.72
2023-06-11T09:07:31.422Z,4.40
2023-06-11T09:09:57.904Z,4.50
2023-06-11T09:12:24.405Z,4.47
2023-06-11T09:14:50.895Z,5.03
2023-06-11T09:17:17.336Z,4.82
2023-06-11T09:19:43.749Z,4.90
2023-06-11T09:22:10.219Z,4.85
2023-06-11T09:24:36.664Z,5.60
2023-06-11T09:27:03.112Z,5.00
2023-06-11T09:29:29.593Z,4.20
2023-06-11T09:31:56.130Z,4.97
2023-06-11T09:34:22.626Z,4.07
2023-06-11T09:36:49.110Z,4.70
2023-06-11T09:39:15.593Z,4.10
2023-06-11T09:41:42.098Z,4.22
2023-06-11T09:44:08.523Z,4.55
2023-06-11T09:46:35.249Z,3.75
2023-06-11T09:49:02.801Z,3.67
2023-06-11T09:51:29.293Z,4.00
2023-06-11T09:53:55.747Z,4.13
2023-06-11T09:56:22.243Z,3.92
2023-06-11T09:58:48.713Z,4.35
2023-06-11T10:01:15.199Z,4.50
2023-06-11T10:03:41.807Z,5.70
2023-06-11T10:06:08.348Z,4.50
2023-06-11T10:08:34.844Z,4.35
2023-06-11T10:11:01.274Z,5.20
2023-06-11T10:13:27.679Z,4.53
2023-06-11T10:15:54.154Z,3.95
2023-06-11T10:18:20.602Z,4.75
2023-06-11T10:20:47.088Z,5.47
2023-06-11T10:23:13.575Z,4.32
2023-06-11T10:25:40.020Z,4.90
2023-06-11T10:28:06.512Z,3.92
2023-06-11T10:30:32.938Z,4.20
2023-06-11T10:32:59.623Z,4.97
2023-06-11T10:35:26.450Z,4.68
2023-06-11T10:37:52.953Z,4.00
2023-06-11T10:40:21.110Z,5.00
2023-06-11T10:42:47.816Z,4.85
2023-06-11T10:45:14.312Z,4.20
2023-06-11T10:47:40.792Z,5.10
2023-06-11T10:50:07.327Z,4.35
2023-06-11T10:52:33.810Z,4.43
2023-06-11T10:55:00.251Z,4.28
2023-06-11T10:57:26.752Z,4.57
2023-06-11T10:59:53.541Z,5.20
2023-06-11T11:02:20.254Z,5.05
2023-06-11T11:04:46.828Z,4.70
2023-06-11T11:07:13.322Z,5.35
2023-06-11T11:09:39.823Z,4.45
2023-06-11T11:12:06.267Z,4.75
2023-06-11T11:14:32.695Z,5.32
2023-06-11T11:16:59.280Z,4.70
2023-06-11T11:19:25.797Z,3.65
2023-06-11T11:21:52.279Z,5.72
2023-06-11T11:24:18.893Z,5.82
2023-06-11T11:26:45.505Z,4.95
2023-06-11T11:29:11.992Z,5.43
2023-06-11T11:31:38.479Z,5.63
2023-06-11T11:34:04.958Z,6.07
2023-06-11T11:36:31.427Z,5.53
2023-06-11T11:38:57.865Z,5.30
2023-06-11T11:41:24.455Z,5.05
2023-06-11T11:43:50.950Z,6.03
2023-06-11T11:46:17.568Z,5.32
2023-06-11T11:48:44.092Z,5.32
2023-06-11T11:51:10.562Z,7.07
2023-06-11T11:53:37.083Z,4.45
2023-06-11T11:56:06.479Z,4.55
2023-06-11T11:58:33.563Z,5.18
2023-06-11T12:01:00.016Z,8.57
2023-06-11T12:03:26.576Z,4.82
2023-06-11T12:05:53.315Z,4.95
2023-06-11T12:08:19.966Z,6.43
2023-06-11T12:10:46.436Z,4.75
2023-06-11T12:13:12.918Z,4.93
2023-06-11T12:15:39.345Z,5.00
2023-06-11T12:18:05.909Z,4.68
2023-06-11T12:20:32.437Z,5.35
2023-06-11T12:22:58.903Z,4.57
2023-06-11T12:25:25.418Z,4.95
2023-06-11T12:27:51.965Z,5.85
2023-06-11T12:30:18.388Z,5.00
2023-06-11T12:32:44.894Z,6.82
2023-06-11T12:35:11.388Z,7.32
2023-06-11T12:37:37.846Z,5.53
2023-06-11T12:40:04.312Z,4.78
2023-06-11T12:42:30.810Z,5.18
2023-06-11T12:44:57.532Z,5.28
2023-06-11T12:47:24.049Z,4.50
2023-06-11T12:49:50.513Z,5.82
2023-06-11T12:52:16.988Z,5.35
2023-06-11T12:54:43.402Z,5.13
2023-06-11T12:57:09.865Z,5.53
2023-06-11T12:59:36.350Z,4.93
2023-06-11T13:02:02.855Z,5.07
2023-06-11T13:04:29.373Z,4.20
2023-06-11T13:06:55.887Z,4.30
2023-06-11T13:09:22.369Z,4.47
2023-06-11T13:11:48.894Z,4.13
2023-06-11T13:14:18.140Z,4.28
2023-06-11T13:16:45.513Z,6.20
2023-06-11T13:19:11.954Z,7.05
2023-06-11T13:21:38.429Z,5.75
2023-06-11T13:24:04.946Z,5.70
2023-06-11T13:26:31.418Z,5.50
2023-06-11T13:28:57.930Z,5.40
2023-06-11T13:31:24.589Z,5.03
2023-06-11T13:33:51.095Z,5.20
2023-06-11T13:36:17.624Z,5.47
2023-06-11T13:38:44.088Z,5.32
2023-06-11T13:41:10.704Z,6.00
2023-06-11T13:43:37.166Z,5.68
2023-06-11T13:46:03.585Z,5.25
2023-06-11T13:48:30.089Z,5.13
2023-06-11T13:50:56.549Z,4.40
2023-06-11T13:53:23.056Z,5.53
2023-06-11T13:55:49.890Z,5.32
2023-06-11T13:58:16.332Z,4.72
2023-06-11T14:00:42.809Z,4.85
2023-06-11T14:03:09.375Z,4.93
2023-06-11T14:05:35.891Z,4.80
2023-06-11T14:08:02.355Z,4.55
2023-06-11T14:10:28.833Z,6.28
2023-06-11T14:12:55.548Z,4.97
2023-06-11T14:15:22.062Z,5.53
2023-06-11T14:17:48.690Z,8.73
2023-06-11T14:20:17.713Z,4.60
2023-06-11T14:22:44.647Z,5.75
2023-06-11T14:25:11.136Z,5.03
2023-06-11T14:27:37.610Z,5.63
2023-06-11T14:30:04.100Z,5.30
2023-06-11T14:32:30.778Z,5.93
2023-06-11T14:34:57.327Z,4.47
2023-06-11T14:37:23.809Z,5.20
2023-06-11T14:39:50.455Z,4.50
2023-06-11T14:42:16.937Z,4.53
2023-06-11T14:44:43.433Z,7.10
2023-06-11T14:47:10.048Z,5.82
2023-06-11T14:49:36.511Z,6.05
2023-06-11T14:52:03.010Z,5.47
2023-06-11T14:54:29.472Z,4.60
2023-06-11T14:56:55.982Z,7.32
2023-06-11T14:59:22.506Z,4.95
2023-06-11T15:01:49.072Z,5.32
2023-06-11T15:04:15.699Z,5.72
2023-06-11T15:06:42.394Z,5.55
2023-06-11T15:09:08.956Z,5.00
2023-06-11T15:11:35.417Z,5.82
2023-06-11T15:14:01.881Z,5.32
2023-06-11T15:16:28.470Z,5.50
2023-06-11T15:18:54.993Z,5.20
2023-06-11T15:21:21.644Z,5.30
2023-06-11T15:23:48.153Z,5.13
2023-06-11T15:26:14.685Z,4.75
2023-06-11T15:28:41.264Z,4.95
2023-06-11T15:31:07.784Z,4.32
2023-06-11T15:33:34.258Z,4.25
2023-06-11T15:36:00.737Z,5.53
2023-06-11T15:38:28.687Z,5.80
2023-06-11T15:40:55.500Z,6.32
2023-06-11T15:43:22.050Z,5.20
2023-06-11T15:45:48.560Z,5.40
2023-06-11T15:48:15.093Z,5.20
2023-06-11T15:50:41.592Z,4.72
2023-06-11T15:53:08.127Z,4.85
2023-06-11T15:55:34.635Z,6.55
2023-06-11T15:58:01.083Z,4.70
2023-06-11T16:00:27.504Z,5.43
2023-06-11T16:02:53.998Z,4.72
2023-06-11T16:05:20.523Z,4.57
2023-06-11T16:07:46.977Z,4.85
2023-06-11T16:10:14.768Z,5.88
2023-06-11T16:12:41.621Z,4.97
2023-06-11T16:15:08.101Z,4.55
2023-06-11T16:17:34.633Z,4.70
2023-06-11T16:20:01.173Z,4.85
2023-06-11T16:22:27.735Z,4.60
2023-06-11T16:24:54.229Z,6.68
2023-06-11T16:27:20.724Z,4.70
2023-06-11T16:29:47.207Z,5.47
2023-06-11T16:32:13.662Z,5.07
2023-06-11T16:34:40.168Z,4.78
2023-06-11T16:37:06.680Z,5.40
2023-06-11T16:39:33.102Z,6.28
2023-06-11T16:41:59.589Z,4.72
2023-06-11T16:44:26.057Z,4.40
2023-06-11T16:46:52.572Z,5.32
2023-06-11T16:49:19.053Z,4.80
2023-06-11T16:51:45.532Z,4.82
2023-06-11T16:54:12.546Z,6.13
2023-06-11T16:56:39.412Z,5.10
2023-06-11T16:59:05.861Z,5.13
2023-06-11T17:01:32.498Z,5.07
2023-06-11T17:03:59.161Z,4.32
2023-06-11T17:06:25.693Z,6.00
2023-06-11T17:08:52.149Z,4.93
2023-06-11T17:11:18.577Z,4.65
2023-06-11T17:13:44.994Z,4.72
2023-06-11T17:16:11.471Z,5.25
2023-06-11T17:18:37.973Z,5.75
2023-06-11T17:21:04.496Z,5.25
2023-06-11T17:23:31.152Z,4.05
2023-06-11T17:25:57.651Z,4.63
2023-06-11T17:28:24.108Z,3.97
2023-06-11T17:30:50.541Z,4.75
2023-06-11T17:33:17.012Z,4.97
2023-06-11T17:35:43.531Z,5.43
2023-06-11T17:38:09.969Z,4.30
2023-06-11T17:40:36.408Z,5.47
2023-06-11T17:43:02.885Z,4.75
2023-06-11T17:45:29.400Z,4.60
2023-06-11T17:47:55.896Z,4.95
2023-06-11T17:50:22.441Z,4.93
2023-06-11T17:52:48.958Z,4.85
2023-06-11T17:55:15.515Z,5.18
2023-06-11T17:57:42.023Z,5.75
2023-06-11T18:00:08.695Z,6.30
2023-06-11T18:02:35.391Z,4.80
2023-06-11T18:05:01.940Z,5.18
2023-06-11T18:07:28.412Z,5.45
2023-06-11T18:09:54.864Z,5.68
2023-06-11T18:12:21.308Z,5.80
2023-06-11T18:14:47.785Z,4.93
2023-06-11T18:17:14.264Z,4.90
2023-06-11T18:19:40.767Z,5.45
2023-06-11T18:22:07.232Z,6.75
2023-06-11T18:24:33.766Z,5.50
2023-06-11T18:27:00.303Z,4.40
2023-06-11T18:29:28.447Z,4.85
2023-06-11T18:31:55.645Z,5.25
2023-06-11T18:34:22.178Z,5.75
2023-06-11T18:36:48.673Z,5.60
2023-06-11T18:39:15.103Z,5.07
2023-06-11T18:41:41.567Z,5.72
2023-06-11T18:44:08.050Z,5.80
2023-06-11T18:46:35.467Z,8.15
2023-06-11T18:49:03.500Z,5.35
2023-06-11T18:51:29.963Z,5.20
2023-06-11T18:53:56.430Z,5.13
2023-06-11T18:56:22.979Z,4.90
2023-06-11T18:58:49.497Z,5.40
2023-06-11T19:01:16.025Z,4.72
2023-06-11T19:03:44.794Z,4.82
2023-06-11T19:06:11.768Z,5.70
2023-06-11T19:08:38.259Z,4.90
2023-06-11T19:11:04.728Z,7.35
2023-06-11T19:13:31.186Z,6.75
2023-06-11T19:15:57.674Z,4.90
2023-06-11T19:18:24.095Z,5.28
2023-06-11T19:20:50.567Z,6.65
2023-06-11T19:23:17.054Z,4.65
2023-06-11T19:25:43.522Z,5.35
2023-06-11T19:28:10.045Z,4.75
2023-06-11T19:30:36.640Z,4.38
2023-06-11T19:33:03.240Z,4.97
2023-06-11T19:35:29.881Z,4.80
2023-06-11T19:37:56.426Z,4.60
2023-06-11T19:40:22.874Z,4.90
2023-06-11T19:42:49.427Z,4.47
2023-06-11T19:45:15.869Z,5.35
2023-06-11T19:47:42.393Z,4.80
2023-06-11T19:50:09.065Z,5.25
2023-06-11T19:52:35.689Z,4.30
2023-06-11T19:55:02.119Z,5.90
2023-06-11T19:57:28.766Z,4.35
2023-06-11T19:59:55.413Z,4.13
2023-06-11T20:02:21.941Z,3.97
2023-06-11T20:04:48.458Z,3.80
2023-06-11T20:07:14.957Z,4.30
2023-06-11T20:09:41.387Z,3.47
2023-06-11T20:12:07.979Z,5.63
2023-06-11T20:14:34.604Z,3.90
2023-06-11T20:17:01.118Z,3.85
2023-06-11T20:19:27.574Z,4.00
2023-06-11T20:21:54.048Z,4.05
2023-06-11T20:24:20.669Z,4.05
2023-06-11T20:26:47.235Z,3.63
2023-06-11T20:29:13.674Z,5.10
2023-06-11T20:31:40.223Z,5.15
2023-06-11T20:34:06.787Z,3.83
2023-06-11T20:36:33.275Z,4.43
2023-06-11T20:38:59.741Z,4.45
2023-06-11T20:41:26.180Z,3.97
2023-06-11T20:43:52.650Z,4.47
2023-06-11T20:46:29.306Z,4.05
2023-06-11T20:48:56.325Z,3.80
2023-06-11T20:51:22.873Z,3.50
2023-06-11T20:53:49.468Z,5.22
2023-06-11T20:56:15.951Z,3.97
2023-06-11T20:58:42.473Z,3.60
2023-06-11T21:01:09.009Z,5.32
2023-06-11T21:03:35.575Z,4.15
2023-06-11T21:06:02.076Z,4.82
2023-06-11T21:08:28.592Z,4.05
2023-06-11T21:10:55.023Z,3.90
2023-06-11T21:13:21.514Z,4.82
2023-06-11T21:15:47.993Z,4.00
2023-06-11T21:18:14.552Z,4.88
2023-06-11T21:20:41.097Z,5.18
2023-06-11T21:23:07.693Z,4.28
2023-06-11T21:25:37.749Z,4.10
2023-06-11T21:28:04.227Z,3.47
2023-06-11T21:30:30.665Z,3.60
2023-06-11T21:32:57.175Z,3.83
2023-06-11T21:35:23.963Z,3.88
2023-06-11T21:37:50.461Z,3.90
2023-06-11T21:40:16.969Z,3.75
2023-06-11T21:42:43.695Z,3.95
2023-06-11T21:45:10.214Z,7.50
2023-06-11T21:47:36.701Z,4.32
2023-06-11T21:50:03.171Z,4.47
2023-06-11T21:52:29.648Z,4.35
2023-06-11T21:54:56.105Z,4.38
2023-06-11T21:57:22.576Z,4.10
2023-06-11T21:59:49.176Z,3.60
2023-06-11T22:02:15.768Z,3.95
2023-06-11T22:04:42.247Z,4.72
2023-06-11T22:07:08.700Z,3.70
2023-06-11T22:09:35.198Z,4.45
2023-06-11T22:12:01.659Z,3.50
2023-06-11T22:14:28.149Z,4.20
2023-06-11T22:16:54.900Z,6.43
2023-06-11T22:19:21.413Z,3.63
2023-06-11T22:21:47.889Z,3.65
2023-06-11T22:24:14.412Z,4.22
2023-06-11T22:26:40.958Z,5.50
2023-06-11T22:29:07.463Z,3.90
2023-06-11T22:31:33.990Z,3.33
2023-06-11T22:34:00.531Z,4.70
2023-06-11T22:36:26.961Z,3.92
2023-06-11T22:38:53.394Z,3.45
2023-06-11T22:41:20.052Z,3.40
2023-06-11T22:43:46.506Z,3.63
2023-06-11T22:46:12.975Z,4.53
2023-06-11T22:48:39.485Z,3.45
2023-06-11T22:51:05.927Z,3.78
2023-06-11T22:53:32.406Z,3.63
2023-06-11T22:55:58.853Z,4.07
2023-06-11T22:58:25.536Z,4.20
2023-06-11T23:00:52.038Z,3.58
2023-06-11T23:03:18.622Z,3.53
2023-06-11T23:05:45.170Z,6.95
2023-06-11T23:08:11.622Z,3.67
2023-06-11T23:10:38.056Z,3.42
2023-06-11T23:13:04.496Z,3.92
2023-06-11T23:15:30.974Z,3.90
2023-06-11T23:17:57.495Z,4.30
2023-06-11T23:20:24.000Z,3.90
2023-06-11T23:22:50.498Z,3.67
2023-06-11T23:25:16.962Z,3.45
2023-06-11T23:27:43.428Z,4.10
2023-06-11T23:30:10.107Z,4.28
2023-06-11T23:32:36.731Z,3.95
2023-06-11T23:35:03.233Z,4.40
2023-06-11T23:37:29.725Z,3.25
2023-06-11T23:39:56.238Z,3.72
2023-06-11T23:42:22.702Z,3.60
2023-06-11T23:44:49.393Z,3.90
2023-06-11T23:47:15.832Z,3.80
2023-06-11T23:49:42.276Z,3.40
2023-06-11T23:52:08.740Z,3.72
2023-06-11T23:54:35.215Z,4.43
2023-06-11T23:57:01.694Z,3.17
2023-06-11T23:59:28.188Z,5.22
